Accueil
METAR-TAF:

METAR-TAF

Aéroports :

Graham Municipal Airport

Graham, Texas, États-Unis

latitude: 33-06-36N, longitude: 098-33-19W, altitude: 342 m

Observation

Le bulletin a été fait il y a 12 minutes, à 17:35 UTC
Vent 3 kt de nord/nord-est
Température 24°C
Humidité 65%
Pression 1017 hPa

METAR: KRPH 201735Z AUTO 02003KT 24/17 A3003 RMK AO2 T02410165 PWINO

Heure: 12:47 (17:47 UTC)


TAF: absent

Observations et prévisions météorologiques de plus de 4000 aéroports (messages METAR et TAF).

Les stations disponibles sont représentées par des disques jaunes et rouges sur la carte.

Passer la souris dessus pour voir le nom de la station.

Cliquer dessus pour voir les observations et prévisions météorologiques.

Pour changer de carte: cliquez sur les boutons verts avec une croix noire pour zoomer, sur le bouton vert avec un tiret pour effectuer un zoom arrière, ou sur les flèches vertes pour les cartes adjacentes.


METAR-TAF: